sensor_id;sensor_type;location;lat;lon;timestamp;pressure;altitude;pressure_sealevel;temperature;humidity
40708;BME280;26392;42.696;23.350;2023-07-08T00:00:51;95585.63;;;19.57;100.00
40708;BME280;26392;42.696;23.350;2023-07-08T00:03:18;95592.19;;;19.61;100.00
40708;BME280;26392;42.696;23.350;2023-07-08T00:05:45;95569.75;;;19.49;100.00
40708;BME280;26392;42.696;23.350;2023-07-08T00:08:17;95576.63;;;19.52;100.00
40708;BME280;26392;42.696;23.350;2023-07-08T00:10:44;95579.28;;;19.43;100.00
40708;BME280;26392;42.696;23.350;2023-07-08T00:13:10;95588.16;;;19.40;100.00
40708;BME280;26392;42.696;23.350;2023-07-08T00:15:36;95562.78;;;19.24;100.00
40708;BME280;26392;42.696;23.350;2023-07-08T00:18:10;95581.72;;;19.31;100.00
40708;BME280;26392;42.696;23.350;2023-07-08T00:20:39;95579.56;;;19.28;100.00
40708;BME280;26392;42.696;23.350;2023-07-08T00:23:05;95580.69;;;19.27;100.00
40708;BME280;26392;42.696;23.350;2023-07-08T00:25:32;95570.84;;;19.20;100.00
40708;BME280;26392;42.696;23.350;2023-07-08T00:27:58;95573.09;;;19.18;100.00
40708;BME280;26392;42.696;23.350;2023-07-08T00:30:27;95572.88;;;19.15;100.00
40708;BME280;26392;42.696;23.350;2023-07-08T00:32:53;95568.50;;;19.14;100.00
40708;BME280;26392;42.696;23.350;2023-07-08T00:35:41;95570.81;;;19.07;100.00
40708;BME280;26392;42.696;23.350;2023-07-08T00:38:23;95558.13;;;19.06;100.00
40708;BME280;26392;42.696;23.350;2023-07-08T00:43:52;95557.41;;;19.00;100.00
40708;BME280;26392;42.696;23.350;2023-07-08T00:51:38;95561.50;;;19.03;100.00
40708;BME280;26392;42.696;23.350;2023-07-08T00:54:05;95563.75;;;19.00;100.00
40708;BME280;26392;42.696;23.350;2023-07-08T00:56:58;95555.66;;;19.04;100.00
40708;BME280;26392;42.696;23.350;2023-07-08T00:59:45;95551.81;;;19.05;100.00
40708;BME280;26392;42.696;23.350;2023-07-08T01:02:16;95550.25;;;18.99;100.00
40708;BME280;26392;42.696;23.350;2023-07-08T01:07:21;95550.03;;;18.95;100.00
40708;BME280;26392;42.696;23.350;2023-07-08T01:09:51;95545.91;;;18.93;100.00
40708;BME280;26392;42.696;23.350;2023-07-08T01:12:23;95556.16;;;18.92;100.00
40708;BME280;26392;42.696;23.350;2023-07-08T01:14:52;95538.84;;;18.87;100.00
40708;BME280;26392;42.696;23.350;2023-07-08T01:17:23;95538.66;;;18.83;100.00
40708;BME280;26392;42.696;23.350;2023-07-08T01:19:49;95545.88;;;18.79;100.00
40708;BME280;26392;42.696;23.350;2023-07-08T01:22:16;95531.06;;;18.75;100.00
40708;BME280;26392;42.696;23.350;2023-07-08T01:24:43;95543.47;;;18.72;100.00
40708;BME280;26392;42.696;23.350;2023-07-08T01:27:12;95547.38;;;18.71;100.00
40708;BME280;26392;42.696;23.350;2023-07-08T01:29:38;95538.28;;;18.71;100.00
40708;BME280;26392;42.696;23.350;2023-07-08T01:32:04;95537.75;;;18.69;100.00
40708;BME280;26392;42.696;23.350;2023-07-08T01:34:31;95532.03;;;18.65;100.00
40708;BME280;26392;42.696;23.350;2023-07-08T01:36:59;95536.09;;;18.68;100.00
40708;BME280;26392;42.696;23.350;2023-07-08T01:39:28;95533.66;;;18.66;100.00
40708;BME280;26392;42.696;23.350;2023-07-08T01:41:55;95540.59;;;18.64;100.00
40708;BME280;26392;42.696;23.350;2023-07-08T01:44:35;95536.69;;;18.65;100.00
40708;BME280;26392;42.696;23.350;2023-07-08T01:47:11;95538.38;;;18.66;100.00
40708;BME280;26392;42.696;23.350;2023-07-08T01:49:39;95517.47;;;18.60;100.00
40708;BME280;26392;42.696;23.350;2023-07-08T01:52:06;95523.59;;;18.56;100.00
40708;BME280;26392;42.696;23.350;2023-07-08T01:54:32;95529.84;;;18.62;100.00
40708;BME280;26392;42.696;23.350;2023-07-08T01:56:58;95521.34;;;18.59;100.00
40708;BME280;26392;42.696;23.350;2023-07-08T01:59:24;95521.06;;;18.60;100.00
40708;BME280;26392;42.696;23.350;2023-07-08T02:01:50;95524.13;;;18.59;100.00
40708;BME280;26392;42.696;23.350;2023-07-08T02:04:23;95519.41;;;18.59;100.00
40708;BME280;26392;42.696;23.350;2023-07-08T02:06:57;95527.94;;;18.63;100.00
40708;BME280;26392;42.696;23.350;2023-07-08T02:09:23;95532.59;;;18.62;100.00
40708;BME280;26392;42.696;23.350;2023-07-08T02:11:51;95526.94;;;18.53;100.00
40708;BME280;26392;42.696;23.350;2023-07-08T02:14:16;95542.00;;;18.61;100.00
40708;BME280;26392;42.696;23.350;2023-07-08T02:16:42;95544.84;;;18.56;100.00
40708;BME280;26392;42.696;23.350;2023-07-08T02:19:08;95542.28;;;18.60;100.00
40708;BME280;26392;42.696;23.350;2023-07-08T02:21:33;95541.50;;;18.59;100.00
40708;BME280;26392;42.696;23.350;2023-07-08T02:24:00;95543.44;;;18.59;100.00
40708;BME280;26392;42.696;23.350;2023-07-08T02:26:26;95548.75;;;18.55;100.00
40708;BME280;26392;42.696;23.350;2023-07-08T02:28:52;95553.66;;;18.58;100.00
40708;BME280;26392;42.696;23.350;2023-07-08T02:31:17;95553.13;;;18.56;100.00
40708;BME280;26392;42.696;23.350;2023-07-08T02:33:43;95557.00;;;18.55;100.00
40708;BME280;26392;42.696;23.350;2023-07-08T02:36:08;95543.09;;;18.46;100.00
40708;BME280;26392;42.696;23.350;2023-07-08T02:38:33;95556.19;;;18.54;100.00
40708;BME280;26392;42.696;23.350;2023-07-08T02:40:59;95568.88;;;18.55;100.00
40708;BME280;26392;42.696;23.350;2023-07-08T02:43:25;95563.75;;;18.49;100.00
40708;BME280;26392;42.696;23.350;2023-07-08T02:45:50;95565.28;;;18.55;100.00
40708;BME280;26392;42.696;23.350;2023-07-08T02:48:17;95572.50;;;18.51;100.00
40708;BME280;26392;42.696;23.350;2023-07-08T02:50:43;95572.22;;;18.52;100.00
40708;BME280;26392;42.696;23.350;2023-07-08T02:53:08;95576.63;;;18.53;100.00
40708;BME280;26392;42.696;23.350;2023-07-08T02:55:33;95569.59;;;18.42;100.00
40708;BME280;26392;42.696;23.350;2023-07-08T02:57:59;95593.47;;;18.52;100.00
40708;BME280;26392;42.696;23.350;2023-07-08T03:00:24;95584.97;;;18.48;100.00
40708;BME280;26392;42.696;23.350;2023-07-08T03:02:50;95580.78;;;18.51;100.00
40708;BME280;26392;42.696;23.350;2023-07-08T03:05:15;95581.09;;;18.49;100.00
40708;BME280;26392;42.696;23.350;2023-07-08T03:07:41;95578.03;;;18.51;100.00
40708;BME280;26392;42.696;23.350;2023-07-08T03:10:06;95577.75;;;18.52;100.00
40708;BME280;26392;42.696;23.350;2023-07-08T03:12:32;95567.84;;;18.51;100.00
40708;BME280;26392;42.696;23.350;2023-07-08T03:14:57;95578.47;;;18.58;100.00
40708;BME280;26392;42.696;23.350;2023-07-08T03:17:23;95573.78;;;18.59;100.00
40708;BME280;26392;42.696;23.350;2023-07-08T03:19:48;95574.91;;;18.58;100.00
40708;BME280;26392;42.696;23.350;2023-07-08T03:22:14;95583.69;;;18.60;100.00
40708;BME280;26392;42.696;23.350;2023-07-08T03:24:40;95584.97;;;18.67;100.00
40708;BME280;26392;42.696;23.350;2023-07-08T03:27:11;95576.34;;;18.74;100.00
40708;BME280;26392;42.696;23.350;2023-07-08T03:29:37;95580.06;;;18.83;100.00
40708;BME280;26392;42.696;23.350;2023-07-08T03:32:03;95572.19;;;18.90;100.00
40708;BME280;26392;42.696;23.350;2023-07-08T03:34:28;95566.16;;;18.88;100.00
40708;BME280;26392;42.696;23.350;2023-07-08T03:36:54;95583.38;;;18.99;100.00
40708;BME280;26392;42.696;23.350;2023-07-08T03:39:23;95575.09;;;18.99;100.00
40708;BME280;26392;42.696;23.350;2023-07-08T03:41:50;95569.59;;;18.99;100.00
40708;BME280;26392;42.696;23.350;2023-07-08T03:44:16;95576.94;;;19.04;100.00
40708;BME280;26392;42.696;23.350;2023-07-08T03:46:47;95553.38;;;18.92;100.00
40708;BME280;26392;42.696;23.350;2023-07-08T03:49:15;95567.31;;;19.01;100.00
40708;BME280;26392;42.696;23.350;2023-07-08T03:51:41;95565.97;;;18.98;100.00
40708;BME280;26392;42.696;23.350;2023-07-08T03:54:12;95565.69;;;19.00;100.00
40708;BME280;26392;42.696;23.350;2023-07-08T03:56:38;95572.75;;;19.06;100.00
40708;BME280;26392;42.696;23.350;2023-07-08T03:59:03;95567.16;;;19.11;100.00
40708;BME280;26392;42.696;23.350;2023-07-08T04:01:29;95568.81;;;19.26;100.00
40708;BME280;26392;42.696;23.350;2023-07-08T04:03:56;95551.84;;;19.33;100.00
40708;BME280;26392;42.696;23.350;2023-07-08T04:06:22;95546.63;;;19.45;100.00
40708;BME280;26392;42.696;23.350;2023-07-08T04:08:48;95563.31;;;19.54;100.00
40708;BME280;26392;42.696;23.350;2023-07-08T04:11:17;95565.41;;;19.89;100.00
40708;BME280;26392;42.696;23.350;2023-07-08T04:13:43;95575.81;;;20.70;100.00
40708;BME280;26392;42.696;23.350;2023-07-08T04:16:16;95573.91;;;21.47;100.00
40708;BME280;26392;42.696;23.350;2023-07-08T04:18:42;95577.31;;;22.24;100.00
40708;BME280;26392;42.696;23.350;2023-07-08T04:21:08;95583.22;;;22.66;100.00
40708;BME280;26392;42.696;23.350;2023-07-08T04:23:33;95575.50;;;23.50;100.00
40708;BME280;26392;42.696;23.350;2023-07-08T04:25:59;95575.41;;;24.14;100.00
40708;BME280;26392;42.696;23.350;2023-07-08T04:28:24;95566.28;;;24.64;99.90
40708;BME280;26392;42.696;23.350;2023-07-08T04:30:50;95578.66;;;25.17;94.49
40708;BME280;26392;42.696;23.350;2023-07-08T04:33:16;95579.63;;;25.67;89.90
40708;BME280;26392;42.696;23.350;2023-07-08T04:35:42;95579.38;;;26.05;86.75
40708;BME280;26392;42.696;23.350;2023-07-08T04:38:27;95575.88;;;26.33;82.39
40708;BME280;26392;42.696;23.350;2023-07-08T04:40:53;95574.22;;;26.32;80.29
40708;BME280;26392;42.696;23.350;2023-07-08T04:43:20;95574.44;;;26.76;78.60
40708;BME280;26392;42.696;23.350;2023-07-08T04:45:48;95580.81;;;26.89;76.78
40708;BME280;26392;42.696;23.350;2023-07-08T04:48:19;95581.44;;;26.70;76.35
40708;BME280;26392;42.696;23.350;2023-07-08T04:50:48;95578.31;;;26.47;78.23
40708;BME280;26392;42.696;23.350;2023-07-08T04:53:15;95585.84;;;26.46;79.33
40708;BME280;26392;42.696;23.350;2023-07-08T04:55:44;95576.22;;;26.56;78.03
40708;BME280;26392;42.696;23.350;2023-07-08T04:58:10;95578.19;;;26.68;77.66
40708;BME280;26392;42.696;23.350;2023-07-08T05:00:36;95577.50;;;26.59;76.95
40708;BME280;26392;42.696;23.350;2023-07-08T05:03:01;95586.66;;;26.71;76.60
40708;BME280;26392;42.696;23.350;2023-07-08T05:05:27;95588.44;;;26.51;75.74
40708;BME280;26392;42.696;23.350;2023-07-08T05:07:52;95595.50;;;25.87;80.74
40708;BME280;26392;42.696;23.350;2023-07-08T05:10:18;95587.66;;;25.68;82.75
40708;BME280;26392;42.696;23.350;2023-07-08T05:12:44;95595.88;;;25.98;81.20
40708;BME280;26392;42.696;23.350;2023-07-08T05:15:10;95598.66;;;26.35;79.84
40708;BME280;26392;42.696;23.350;2023-07-08T05:17:37;95587.25;;;26.40;78.79
40708;BME280;26392;42.696;23.350;2023-07-08T05:20:04;95596.50;;;27.06;74.71
40708;BME280;26392;42.696;23.350;2023-07-08T05:22:30;95598.78;;;27.72;71.68
40708;BME280;26392;42.696;23.350;2023-07-08T05:24:56;95607.91;;;27.41;70.59
40708;BME280;26392;42.696;23.350;2023-07-08T05:27:22;95614.03;;;27.75;69.61
40708;BME280;26392;42.696;23.350;2023-07-08T05:29:48;95608.31;;;27.83;68.37
40708;BME280;26392;42.696;23.350;2023-07-08T05:32:14;95615.31;;;26.81;70.47
40708;BME280;26392;42.696;23.350;2023-07-08T05:34:39;95612.53;;;26.19;76.47
40708;BME280;26392;42.696;23.350;2023-07-08T05:37:05;95603.94;;;25.12;84.32
40708;BME280;26392;42.696;23.350;2023-07-08T05:39:31;95599.47;;;24.19;92.98
40708;BME280;26392;42.696;23.350;2023-07-08T05:41:56;95611.63;;;23.50;100.00
40708;BME280;26392;42.696;23.350;2023-07-08T05:44:22;95606.31;;;23.10;100.00
40708;BME280;26392;42.696;23.350;2023-07-08T05:46:48;95604.81;;;22.95;100.00
40708;BME280;26392;42.696;23.350;2023-07-08T05:49:14;95604.00;;;22.86;100.00
40708;BME280;26392;42.696;23.350;2023-07-08T05:51:40;95623.78;;;22.84;100.00
40708;BME280;26392;42.696;23.350;2023-07-08T05:54:05;95624.13;;;22.83;100.00
40708;BME280;26392;42.696;23.350;2023-07-08T05:56:31;95620.03;;;22.71;100.00
40708;BME280;26392;42.696;23.350;2023-07-08T05:58:56;95630.47;;;22.74;100.00
40708;BME280;26392;42.696;23.350;2023-07-08T06:01:22;95623.63;;;22.81;100.00
40708;BME280;26392;42.696;23.350;2023-07-08T06:03:47;95620.69;;;22.86;100.00
40708;BME280;26392;42.696;23.350;2023-07-08T06:06:13;95625.56;;;22.71;100.00
40708;BME280;26392;42.696;23.350;2023-07-08T06:08:38;95635.03;;;22.62;100.00
40708;BME280;26392;42.696;23.350;2023-07-08T06:11:04;95626.72;;;22.79;100.00
40708;BME280;26392;42.696;23.350;2023-07-08T06:13:30;95638.63;;;22.71;100.00
40708;BME280;26392;42.696;23.350;2023-07-08T06:15:55;95631.28;;;22.75;100.00
40708;BME280;26392;42.696;23.350;2023-07-08T06:18:20;95625.56;;;22.71;100.00
40708;BME280;26392;42.696;23.350;2023-07-08T06:20:57;95632.41;;;22.74;100.00
40708;BME280;26392;42.696;23.350;2023-07-08T06:23:23;95633.91;;;22.80;100.00
40708;BME280;26392;42.696;23.350;2023-07-08T06:25:49;95641.13;;;22.98;100.00
40708;BME280;26392;42.696;23.350;2023-07-08T06:28:15;95628.06;;;23.25;100.00
40708;BME280;26392;42.696;23.350;2023-07-08T06:30:40;95638.00;;;23.35;100.00
40708;BME280;26392;42.696;23.350;2023-07-08T06:33:06;95645.34;;;23.48;98.71
40708;BME280;26392;42.696;23.350;2023-07-08T06:35:31;95631.44;;;23.48;98.31
40708;BME280;26392;42.696;23.350;2023-07-08T06:37:58;95639.94;;;23.52;96.92
40708;BME280;26392;42.696;23.350;2023-07-08T06:40:23;95635.06;;;23.31;97.00
40708;BME280;26392;42.696;23.350;2023-07-08T06:42:49;95614.31;;;23.20;98.33
40708;BME280;26392;42.696;23.350;2023-07-08T06:45:14;95632.44;;;23.35;97.32
40708;BME280;26392;42.696;23.350;2023-07-08T06:47:40;95632.59;;;23.30;99.78
40708;BME280;26392;42.696;23.350;2023-07-08T06:50:06;95635.91;;;23.14;100.00
40708;BME280;26392;42.696;23.350;2023-07-08T06:52:32;95624.16;;;23.00;100.00
40708;BME280;26392;42.696;23.350;2023-07-08T06:55:05;95633.09;;;22.88;100.00
40708;BME280;26392;42.696;23.350;2023-07-08T06:57:31;95633.41;;;22.78;100.00
40708;BME280;26392;42.696;23.350;2023-07-08T06:59:56;95625.09;;;22.78;100.00
40708;BME280;26392;42.696;23.350;2023-07-08T07:02:22;95634.88;;;22.93;100.00
40708;BME280;26392;42.696;23.350;2023-07-08T07:04:47;95632.78;;;23.16;99.97
40708;BME280;26392;42.696;23.350;2023-07-08T07:07:12;95634.56;;;23.38;97.03
40708;BME280;26392;42.696;23.350;2023-07-08T07:09:38;95638.78;;;23.61;95.43
40708;BME280;26392;42.696;23.350;2023-07-08T07:12:05;95632.06;;;23.71;95.02
40708;BME280;26392;42.696;23.350;2023-07-08T07:14:32;95629.59;;;23.70;90.77
40708;BME280;26392;42.696;23.350;2023-07-08T07:16:57;95620.19;;;23.44;91.68
40708;BME280;26392;42.696;23.350;2023-07-08T07:19:23;95622.13;;;23.35;92.00
40708;BME280;26392;42.696;23.350;2023-07-08T07:21:48;95645.38;;;23.31;94.93
40708;BME280;26392;42.696;23.350;2023-07-08T07:24:13;95638.84;;;23.18;96.41
40708;BME280;26392;42.696;23.350;2023-07-08T07:26:39;95649.00;;;23.05;96.04
40708;BME280;26392;42.696;23.350;2023-07-08T07:29:05;95654.69;;;22.91;98.18
40708;BME280;26392;42.696;23.350;2023-07-08T07:31:30;95655.78;;;22.73;100.00
40708;BME280;26392;42.696;23.350;2023-07-08T07:33:58;95659.88;;;22.84;100.00
40708;BME280;26392;42.696;23.350;2023-07-08T07:36:23;95659.56;;;22.86;100.00
40708;BME280;26392;42.696;23.350;2023-07-08T07:38:49;95674.81;;;22.97;100.00
40708;BME280;26392;42.696;23.350;2023-07-08T07:41:14;95673.13;;;22.87;100.00
40708;BME280;26392;42.696;23.350;2023-07-08T07:43:40;95657.44;;;22.91;100.00
40708;BME280;26392;42.696;23.350;2023-07-08T07:46:05;95639.13;;;22.90;99.01
40708;BME280;26392;42.696;23.350;2023-07-08T07:48:31;95660.09;;;23.14;95.78
40708;BME280;26392;42.696;23.350;2023-07-08T07:50:57;95669.91;;;23.20;97.30
40708;BME280;26392;42.696;23.350;2023-07-08T07:53:23;95671.03;;;23.19;95.57
40708;BME280;26392;42.696;23.350;2023-07-08T07:55:56;95661.72;;;22.97;95.72
40708;BME280;26392;42.696;23.350;2023-07-08T07:58:21;95661.06;;;23.09;98.19
40708;BME280;26392;42.696;23.350;2023-07-08T08:00:46;95661.91;;;23.36;96.28
40708;BME280;26392;42.696;23.350;2023-07-08T08:03:12;95648.44;;;23.46;93.75
40708;BME280;26392;42.696;23.350;2023-07-08T08:05:37;95665.31;;;23.50;93.50
40708;BME280;26392;42.696;23.350;2023-07-08T08:08:03;95647.16;;;23.53;90.66
40708;BME280;26392;42.696;23.350;2023-07-08T08:10:29;95661.06;;;23.53;91.53
40708;BME280;26392;42.696;23.350;2023-07-08T08:12:55;95674.47;;;23.51;92.80
40708;BME280;26392;42.696;23.350;2023-07-08T08:15:22;95655.97;;;23.46;92.93
40708;BME280;26392;42.696;23.350;2023-07-08T08:17:48;95651.22;;;23.46;93.51
40708;BME280;26392;42.696;23.350;2023-07-08T08:20:14;95660.06;;;23.49;92.74
40708;BME280;26392;42.696;23.350;2023-07-08T08:22:40;95670.22;;;23.44;93.06
40708;BME280;26392;42.696;23.350;2023-07-08T08:25:05;95662.53;;;23.50;91.07
40708;BME280;26392;42.696;23.350;2023-07-08T08:27:31;95666.41;;;23.66;91.73
40708;BME280;26392;42.696;23.350;2023-07-08T08:29:57;95668.06;;;23.76;88.60
40708;BME280;26392;42.696;23.350;2023-07-08T08:32:22;95665.94;;;23.73;90.45
40708;BME280;26392;42.696;23.350;2023-07-08T08:34:48;95660.03;;;23.75;88.96
40708;BME280;26392;42.696;23.350;2023-07-08T08:37:14;95657.72;;;23.85;90.21
40708;BME280;26392;42.696;23.350;2023-07-08T08:39:39;95658.03;;;23.93;88.21
40708;BME280;26392;42.696;23.350;2023-07-08T08:42:23;95661.94;;;24.00;89.35
40708;BME280;26392;42.696;23.350;2023-07-08T08:44:49;95653.44;;;23.97;89.54
40708;BME280;26392;42.696;23.350;2023-07-08T08:47:33;95651.72;;;24.13;89.77
40708;BME280;26392;42.696;23.350;2023-07-08T08:50:17;95656.75;;;24.28;86.28
40708;BME280;26392;42.696;23.350;2023-07-08T08:52:45;95652.50;;;24.22;84.21
40708;BME280;26392;42.696;23.350;2023-07-08T08:55:12;95671.44;;;24.38;84.53
40708;BME280;26392;42.696;23.350;2023-07-08T08:57:47;95657.41;;;24.64;80.92
40708;BME280;26392;42.696;23.350;2023-07-08T09:00:21;95659.34;;;24.93;78.83
40708;BME280;26392;42.696;23.350;2023-07-08T09:02:53;95650.38;;;24.87;79.21
40708;BME280;26392;42.696;23.350;2023-07-08T09:05:23;95667.78;;;25.05;77.67
40708;BME280;26392;42.696;23.350;2023-07-08T09:13:16;95660.31;;;24.67;79.16
40708;BME280;26392;42.696;23.350;2023-07-08T09:15:45;95646.03;;;24.48;82.78
40708;BME280;26392;42.696;23.350;2023-07-08T09:18:17;95645.06;;;24.44;83.20
40708;BME280;26392;42.696;23.350;2023-07-08T09:20:46;95629.38;;;24.30;84.24
40708;BME280;26392;42.696;23.350;2023-07-08T09:23:20;95626.41;;;24.35;84.63
40708;BME280;26392;42.696;23.350;2023-07-08T09:26:04;95629.81;;;24.41;80.74
40708;BME280;26392;42.696;23.350;2023-07-08T09:28:40;95622.13;;;24.47;79.99
40708;BME280;26392;42.696;23.350;2023-07-08T09:31:07;95630.03;;;24.66;81.81
40708;BME280;26392;42.696;23.350;2023-07-08T09:33:36;95628.94;;;24.58;80.38
40708;BME280;26392;42.696;23.350;2023-07-08T09:36:16;95624.78;;;24.64;82.25
40708;BME280;26392;42.696;23.350;2023-07-08T09:38:42;95622.28;;;24.92;83.39
40708;BME280;26392;42.696;23.350;2023-07-08T09:41:07;95632.38;;;24.85;79.76
40708;BME280;26392;42.696;23.350;2023-07-08T09:43:39;95618.28;;;24.60;78.04
40708;BME280;26392;42.696;23.350;2023-07-08T09:46:05;95617.88;;;24.41;80.25
40708;BME280;26392;42.696;23.350;2023-07-08T09:48:36;95604.53;;;24.55;81.31
40708;BME280;26392;42.696;23.350;2023-07-08T09:51:03;95595.31;;;24.63;78.57
40708;BME280;26392;42.696;23.350;2023-07-08T09:53:29;95598.78;;;24.60;77.72
40708;BME280;26392;42.696;23.350;2023-07-08T09:55:58;95605.69;;;24.54;78.89
40708;BME280;26392;42.696;23.350;2023-07-08T09:58:36;95606.22;;;24.47;81.51
40708;BME280;26392;42.696;23.350;2023-07-08T10:01:13;95603.78;;;24.46;77.67
40708;BME280;26392;42.696;23.350;2023-07-08T10:03:40;95589.03;;;24.37;78.52
40708;BME280;26392;42.696;23.350;2023-07-08T10:06:32;95596.19;;;24.55;80.56
40708;BME280;26392;42.696;23.350;2023-07-08T10:09:02;95604.97;;;24.66;78.02
40708;BME280;26392;42.696;23.350;2023-07-08T10:11:30;95592.31;;;24.68;76.69
40708;BME280;26392;42.696;23.350;2023-07-08T10:14:01;95582.47;;;24.71;76.97
40708;BME280;26392;42.696;23.350;2023-07-08T10:16:30;95589.72;;;24.84;76.93
40708;BME280;26392;42.696;23.350;2023-07-08T10:18:57;95589.19;;;24.91;74.12
40708;BME280;26392;42.696;23.350;2023-07-08T10:21:50;95583.63;;;24.91;72.76
40708;BME280;26392;42.696;23.350;2023-07-08T10:41:32;95569.00;;;26.06;65.81
40708;BME280;26392;42.696;23.350;2023-07-08T10:46:52;95563.50;;;25.85;66.93
40708;BME280;26392;42.696;23.350;2023-07-08T10:52:42;95520.69;;;25.68;68.78
40708;BME280;26392;42.696;23.350;2023-07-08T10:55:32;95543.53;;;25.95;64.46
40708;BME280;26392;42.696;23.350;2023-07-08T10:58:13;95551.09;;;25.95;66.76
40708;BME280;26392;42.696;23.350;2023-07-08T11:06:47;95559.69;;;25.89;64.80
40708;BME280;26392;42.696;23.350;2023-07-08T11:12:42;95543.06;;;25.93;63.00
40708;BME280;26392;42.696;23.350;2023-07-08T11:18:19;95530.72;;;26.06;66.55
40708;BME280;26392;42.696;23.350;2023-07-08T11:24:01;95512.78;;;26.32;61.66
40708;BME280;26392;42.696;23.350;2023-07-08T11:26:39;95527.22;;;26.34;62.02
40708;BME280;26392;42.696;23.350;2023-07-08T11:32:03;95523.72;;;26.62;60.48
40708;BME280;26392;42.696;23.350;2023-07-08T11:34:30;95530.63;;;26.80;60.65
40708;BME280;26392;42.696;23.350;2023-07-08T11:36:59;95525.25;;;26.87;58.72
40708;BME280;26392;42.696;23.350;2023-07-08T11:39:58;95520.28;;;26.81;57.89
40708;BME280;26392;42.696;23.350;2023-07-08T11:44:59;95527.41;;;26.66;59.58
40708;BME280;26392;42.696;23.350;2023-07-08T11:47:41;95521.91;;;26.82;58.59
40708;BME280;26392;42.696;23.350;2023-07-08T11:50:28;95539.19;;;26.99;56.94
40708;BME280;26392;42.696;23.350;2023-07-08T11:52:58;95532.28;;;27.09;57.63
40708;BME280;26392;42.696;23.350;2023-07-08T11:55:43;95534.16;;;27.17;56.46
40708;BME280;26392;42.696;23.350;2023-07-08T11:59:09;95529.03;;;27.35;55.91
40708;BME280;26392;42.696;23.350;2023-07-08T12:01:23;95531.19;;;27.26;54.70
40708;BME280;26392;42.696;23.350;2023-07-08T12:04:00;95531.06;;;27.51;54.97
40708;BME280;26392;42.696;23.350;2023-07-08T12:08:59;95535.66;;;27.75;54.79
40708;BME280;26392;42.696;23.350;2023-07-08T12:11:32;95535.59;;;27.71;55.19
40708;BME280;26392;42.696;23.350;2023-07-08T12:13:59;95524.41;;;27.27;54.64
40708;BME280;26392;42.696;23.350;2023-07-08T12:16:27;95522.44;;;27.28;55.14
40708;BME280;26392;42.696;23.350;2023-07-08T12:18:54;95522.72;;;27.10;54.72
40708;BME280;26392;42.696;23.350;2023-07-08T12:21:23;95520.16;;;27.05;55.06
40708;BME280;26392;42.696;23.350;2023-07-08T12:23:49;95521.13;;;26.97;55.99
40708;BME280;26392;42.696;23.350;2023-07-08T12:26:15;95500.03;;;26.71;56.30
40708;BME280;26392;42.696;23.350;2023-07-08T12:28:42;95513.88;;;26.80;57.21
40708;BME280;26392;42.696;23.350;2023-07-08T12:31:16;95516.31;;;26.82;56.13
40708;BME280;26392;42.696;23.350;2023-07-08T12:33:43;95517.28;;;27.01;55.26
40708;BME280;26392;42.696;23.350;2023-07-08T12:36:11;95510.44;;;27.27;55.45
40708;BME280;26392;42.696;23.350;2023-07-08T12:38:43;95502.06;;;27.43;55.67
40708;BME280;26392;42.696;23.350;2023-07-08T12:41:31;95500.16;;;27.31;55.40
40708;BME280;26392;42.696;23.350;2023-07-08T12:43:58;95514.06;;;27.43;55.44
40708;BME280;26392;42.696;23.350;2023-07-08T12:46:24;95513.19;;;27.39;54.68
40708;BME280;26392;42.696;23.350;2023-07-08T12:48:50;95498.72;;;27.37;54.86
40708;BME280;26392;42.696;23.350;2023-07-08T12:51:21;95497.63;;;27.26;55.15
40708;BME280;26392;42.696;23.350;2023-07-08T12:53:46;95503.13;;;27.22;54.68
40708;BME280;26392;42.696;23.350;2023-07-08T12:56:12;95482.16;;;27.16;57.19
40708;BME280;26392;42.696;23.350;2023-07-08T12:58:43;95486.59;;;27.17;55.65
40708;BME280;26392;42.696;23.350;2023-07-08T13:01:16;95508.91;;;27.01;56.38
40708;BME280;26392;42.696;23.350;2023-07-08T13:03:43;95501.16;;;27.11;57.21
40708;BME280;26392;42.696;23.350;2023-07-08T13:06:16;95503.78;;;27.32;57.10
40708;BME280;26392;42.696;23.350;2023-07-08T13:08:43;95503.59;;;27.40;55.62
40708;BME280;26392;42.696;23.350;2023-07-08T13:11:13;95506.94;;;27.46;55.87
40708;BME280;26392;42.696;23.350;2023-07-08T13:13:51;95502.34;;;27.54;54.31
40708;BME280;26392;42.696;23.350;2023-07-08T13:16:18;95514.69;;;27.53;54.26
40708;BME280;26392;42.696;23.350;2023-07-08T13:18:44;95500.59;;;27.33;53.45
40708;BME280;26392;42.696;23.350;2023-07-08T13:21:13;95503.22;;;27.26;53.92
40708;BME280;26392;42.696;23.350;2023-07-08T13:23:39;95507.94;;;27.38;53.84
40708;BME280;26392;42.696;23.350;2023-07-08T13:26:15;95517.16;;;27.54;54.18
40708;BME280;26392;42.696;23.350;2023-07-08T13:28:42;95515.72;;;27.60;53.08
40708;BME280;26392;42.696;23.350;2023-07-08T13:31:19;95519.38;;;27.93;52.82
40708;BME280;26392;42.696;23.350;2023-07-08T13:33:53;95503.00;;;27.95;52.63
40708;BME280;26392;42.696;23.350;2023-07-08T13:36:33;95502.00;;;27.71;52.73
40708;BME280;26392;42.696;23.350;2023-07-08T13:39:02;95498.47;;;27.58;53.00
40708;BME280;26392;42.696;23.350;2023-07-08T13:41:30;95508.22;;;27.49;53.05
40708;BME280;26392;42.696;23.350;2023-07-08T13:43:56;95502.34;;;27.38;54.66
40708;BME280;26392;42.696;23.350;2023-07-08T13:46:37;95504.69;;;27.52;54.17
40708;BME280;26392;42.696;23.350;2023-07-08T13:49:12;95508.59;;;27.63;54.13
40708;BME280;26392;42.696;23.350;2023-07-08T13:51:38;95497.41;;;27.79;53.63
40708;BME280;26392;42.696;23.350;2023-07-08T13:54:25;95507.50;;;27.52;53.26
40708;BME280;26392;42.696;23.350;2023-07-08T13:56:53;95499.06;;;27.20;54.83